Time;durP1;ratioP1;P1;durP2;ratioP2;P2;SDS_P1;SDS_P2;PMS_P1;PMS_P2;Temp;Humidity;BMP_temperature;BMP_pressure;BME280_temperature;BME280_humidity;BME280_pressure;Samples;Min_cycle;Max_cycle;Signal;HPM_P1;HPM_P2
2023/03/12 00:00:10;;;;;;;14.57;9.57;;;;;;;;;;5048410;28;20200;-74
2023/03/12 00:02:38;;;;;;;12.80;9.37;;;;;;;;;;5051681;28;20294;-73
2023/03/12 00:05:06;;;;;;;12.03;8.20;;;;;;;;;;5045235;28;20294;-74
2023/03/12 00:07:35;;;;;;;10.20;7.70;;;;;;;;;;5046628;28;20203;-74
2023/03/12 00:10:02;;;;;;;11.63;8.17;;;;;;;;;;5044842;28;20229;-74
2023/03/12 00:12:29;;;;;;;14.30;8.43;;;;;;;;;;5048431;28;20204;-74
2023/03/12 00:14:56;;;;;;;15.03;9.33;;;;;;;;;;5044999;28;20282;-74
2023/03/12 00:17:23;;;;;;;11.53;8.87;;;;;;;;;;5049442;28;20211;-74
2023/03/12 00:19:53;;;;;;;14.57;9.30;;;;;;;;;;5047151;28;20202;-74
2023/03/12 00:22:21;;;;;;;11.07;7.50;;;;;;;;;;5048533;28;20204;-74
2023/03/12 00:24:50;;;;;;;9.87;6.80;;;;;;;;;;5047359;28;20215;-74
2023/03/12 00:27:18;;;;;;;8.83;5.83;;;;;;;;;;5046580;28;20204;-74
2023/03/12 00:29:45;;;;;;;10.90;6.97;;;;;;;;;;5042657;28;20223;-74
2023/03/12 00:32:12;;;;;;;9.40;7.07;;;;;;;;;;5047103;28;20214;-74
2023/03/12 00:34:39;;;;;;;13.27;7.00;;;;;;;;;;5048614;28;20199;-74
2023/03/12 00:37:08;;;;;;;7.40;5.20;;;;;;;;;;5041309;28;20191;-74
2023/03/12 00:39:35;;;;;;;5.93;4.37;;;;;;;;;;5050254;28;20210;-74
2023/03/12 00:42:02;;;;;;;7.47;4.17;;;;;;;;;;5051720;28;20200;-74
2023/03/12 00:44:29;;;;;;;9.43;4.53;;;;;;;;;;5047337;28;20218;-74
2023/03/12 00:46:56;;;;;;;7.40;4.90;;;;;;;;;;5042076;28;20275;-74
2023/03/12 00:49:24;;;;;;;5.80;4.43;;;;;;;;;;5045904;28;20207;-74
2023/03/12 00:51:51;;;;;;;7.77;5.10;;;;;;;;;;5044959;28;20287;-74
2023/03/12 00:54:19;;;;;;;7.33;4.87;;;;;;;;;;5048455;28;20283;-74
2023/03/12 00:56:46;;;;;;;7.20;4.20;;;;;;;;;;5046104;28;20210;-74
2023/03/12 00:59:14;;;;;;;6.23;4.03;;;;;;;;;;5046444;28;20294;-74
2023/03/12 01:01:41;;;;;;;5.77;3.87;;;;;;;;;;5046324;28;20290;-74
2023/03/12 01:04:08;;;;;;;4.13;3.60;;;;;;;;;;5045776;28;20206;-74
2023/03/12 01:06:35;;;;;;;7.80;4.50;;;;;;;;;;5047145;28;20214;-74
2023/03/12 01:09:09;;;;;;;5.80;3.70;;;;;;;;;;5045588;28;20234;-74
2023/03/12 01:11:38;;;;;;;6.40;4.23;;;;;;;;;;5046180;28;20207;-74
2023/03/12 01:14:06;;;;;;;5.20;3.50;;;;;;;;;;5044685;28;20209;-74
2023/03/12 01:16:34;;;;;;;5.47;3.43;;;;;;;;;;5047759;28;20230;-74
2023/03/12 01:19:02;;;;;;;6.93;3.97;;;;;;;;;;5047935;28;20234;-74
2023/03/12 01:21:29;;;;;;;5.80;3.60;;;;;;;;;;5045726;28;20272;-74
2023/03/12 01:23:57;;;;;;;4.23;3.47;;;;;;;;;;5045313;28;20246;-74
2023/03/12 01:26:24;;;;;;;7.07;3.40;;;;;;;;;;5049210;28;20195;-74
2023/03/12 01:28:53;;;;;;;5.00;3.60;;;;;;;;;;5048758;28;20220;-74
2023/03/12 01:31:20;;;;;;;3.43;2.93;;;;;;;;;;5045492;28;20207;-74
2023/03/12 01:33:50;;;;;;;3.73;3.00;;;;;;;;;;5039750;28;20338;-75
2023/03/12 01:36:17;;;;;;;4.33;3.20;;;;;;;;;;5041078;28;20223;-74
2023/03/12 01:38:47;;;;;;;6.70;4.70;;;;;;;;;;5040251;28;20214;-74
2023/03/12 01:41:15;;;;;;;8.80;5.27;;;;;;;;;;5044417;28;20199;-74
2023/03/12 01:43:42;;;;;;;9.37;5.93;;;;;;;;;;5043143;28;20210;-74
2023/03/12 01:46:28;;;;;;;6.80;4.60;;;;;;;;;;5040983;28;20205;-74
2023/03/12 01:48:56;;;;;;;10.10;5.10;;;;;;;;;;5043995;28;20220;-74
2023/03/12 01:51:25;;;;;;;8.00;5.77;;;;;;;;;;5043982;28;20204;-74
2023/03/12 01:53:54;;;;;;;8.10;5.23;;;;;;;;;;5045526;28;20199;-74
2023/03/12 01:56:21;;;;;;;11.07;5.67;;;;;;;;;;5042392;28;20199;-74
2023/03/12 01:58:50;;;;;;;5.97;4.83;;;;;;;;;;5042979;28;20204;-74
2023/03/12 02:01:18;;;;;;;7.43;4.80;;;;;;;;;;5046306;28;20195;-74
2023/03/12 02:03:48;;;;;;;6.60;4.50;;;;;;;;;;5048088;28;20219;-74
2023/03/12 02:06:16;;;;;;;6.73;4.23;;;;;;;;;;5044890;28;20215;-74
2023/03/12 02:08:46;;;;;;;7.43;3.80;;;;;;;;;;5044893;28;20210;-74
2023/03/12 02:11:13;;;;;;;4.97;3.70;;;;;;;;;;5040718;28;20211;-74
2023/03/12 02:13:40;;;;;;;6.10;4.13;;;;;;;;;;5042231;28;20203;-74
2023/03/12 02:16:11;;;;;;;5.30;4.00;;;;;;;;;;5045538;28;20204;-74
2023/03/12 02:18:38;;;;;;;4.20;3.47;;;;;;;;;;5044636;28;20246;-75
2023/03/12 02:21:11;;;;;;;6.90;3.70;;;;;;;;;;5043116;28;20199;-74
2023/03/12 02:23:41;;;;;;;7.20;4.07;;;;;;;;;;5046855;28;20237;-74
2023/03/12 02:26:10;;;;;;;5.40;3.73;;;;;;;;;;5043823;28;20204;-74
2023/03/12 02:28:42;;;;;;;5.63;4.13;;;;;;;;;;5042631;28;20290;-74
2023/03/12 02:31:13;;;;;;;5.70;4.00;;;;;;;;;;5044524;28;20285;-74
2023/03/12 02:33:40;;;;;;;6.30;4.20;;;;;;;;;;5047350;28;20203;-74
2023/03/12 02:36:08;;;;;;;5.70;3.77;;;;;;;;;;5043037;28;20203;-74
2023/03/12 02:38:39;;;;;;;6.97;3.97;;;;;;;;;;5045741;28;20221;-75
2023/03/12 02:41:11;;;;;;;7.83;3.90;;;;;;;;;;5040436;28;20286;-75
2023/03/12 02:43:39;;;;;;;5.97;3.77;;;;;;;;;;5043711;28;20192;-74
2023/03/12 02:46:07;;;;;;;5.97;3.80;;;;;;;;;;5040714;28;20203;-74
2023/03/12 02:48:34;;;;;;;4.50;4.10;;;;;;;;;;5040562;28;20275;-74
2023/03/12 02:51:02;;;;;;;5.77;3.43;;;;;;;;;;5040698;28;20228;-74
2023/03/12 02:53:29;;;;;;;6.20;4.10;;;;;;;;;;5048945;28;20267;-74
2023/03/12 02:55:56;;;;;;;5.90;4.10;;;;;;;;;;5047519;28;20207;-74
2023/03/12 02:58:25;;;;;;;7.87;5.63;;;;;;;;;;5046403;28;20196;-74
2023/03/12 03:00:52;;;;;;;6.60;4.70;;;;;;;;;;5045480;28;20194;-74
2023/03/12 03:03:19;;;;;;;11.40;6.03;;;;;;;;;;5047943;28;20203;-74
2023/03/12 03:05:46;;;;;;;8.53;5.53;;;;;;;;;;5042574;28;20218;-74
2023/03/12 03:08:13;;;;;;;6.00;4.23;;;;;;;;;;5046301;28;20210;-75
2023/03/12 03:10:40;;;;;;;6.43;3.73;;;;;;;;;;5048231;28;20223;-74
2023/03/12 03:13:07;;;;;;;6.83;4.00;;;;;;;;;;5047519;28;20209;-74
2023/03/12 03:15:37;;;;;;;5.10;2.90;;;;;;;;;;5047457;28;20204;-74
2023/03/12 03:18:04;;;;;;;4.73;2.83;;;;;;;;;;5048615;28;20204;-74
2023/03/12 03:20:32;;;;;;;4.67;2.40;;;;;;;;;;5050539;28;20206;-74
2023/03/12 03:22:59;;;;;;;5.47;2.50;;;;;;;;;;5048022;28;20200;-74
2023/03/12 03:25:26;;;;;;;5.57;3.50;;;;;;;;;;5049032;28;20274;-74
2023/03/12 03:27:53;;;;;;;6.93;4.37;;;;;;;;;;5049612;28;20200;-74
2023/03/12 03:30:21;;;;;;;4.50;3.40;;;;;;;;;;5047443;28;20204;-74
2023/03/12 03:32:50;;;;;;;7.50;4.27;;;;;;;;;;5045585;28;20223;-74
2023/03/12 03:35:17;;;;;;;7.70;3.67;;;;;;;;;;5041365;28;20200;-73
2023/03/12 03:37:44;;;;;;;5.43;3.20;;;;;;;;;;5046114;28;20199;-74
2023/03/12 03:40:12;;;;;;;4.27;3.23;;;;;;;;;;5045876;28;20211;-74
2023/03/12 03:42:40;;;;;;;4.33;2.80;;;;;;;;;;5050693;28;20206;-74
2023/03/12 03:45:08;;;;;;;4.33;2.47;;;;;;;;;;5046890;28;20288;-74
2023/03/12 03:47:35;;;;;;;5.73;2.90;;;;;;;;;;5050045;28;20207;-74
2023/03/12 03:50:04;;;;;;;4.33;2.50;;;;;;;;;;5050817;28;20226;-74
2023/03/12 03:52:31;;;;;;;5.17;2.87;;;;;;;;;;5050530;28;20211;-74
2023/03/12 03:54:59;;;;;;;4.97;2.43;;;;;;;;;;5048810;28;20229;-74
2023/03/12 03:57:26;;;;;;;4.00;2.50;;;;;;;;;;5051491;28;20206;-74
2023/03/12 03:59:53;;;;;;;3.53;2.70;;;;;;;;;;5046596;28;20202;-74
2023/03/12 04:02:21;;;;;;;6.43;2.40;;;;;;;;;;5046661;28;20227;-74
2023/03/12 04:04:48;;;;;;;4.50;2.60;;;;;;;;;;5046680;28;20204;-73
2023/03/12 04:07:20;;;;;;;3.43;2.40;;;;;;;;;;5043765;28;20207;-73
2023/03/12 04:09:47;;;;;;;3.90;2.67;;;;;;;;;;5047683;28;20239;-73
2023/03/12 04:12:14;;;;;;;3.60;2.53;;;;;;;;;;5041595;28;20196;-74
2023/03/12 04:14:41;;;;;;;3.67;2.40;;;;;;;;;;5049216;28;20223;-74
2023/03/12 04:17:08;;;;;;;3.57;2.63;;;;;;;;;;5042406;28;20256;-74
2023/03/12 04:19:36;;;;;;;4.63;3.30;;;;;;;;;;5046335;28;20210;-73
2023/03/12 04:22:03;;;;;;;4.77;2.70;;;;;;;;;;5048787;28;20313;-74
2023/03/12 04:24:31;;;;;;;3.50;2.47;;;;;;;;;;5049145;28;20295;-74
2023/03/12 04:26:59;;;;;;;3.10;2.80;;;;;;;;;;5045477;28;20214;-74
2023/03/12 04:29:26;;;;;;;4.40;2.50;;;;;;;;;;5046453;28;20286;-74
2023/03/12 04:31:53;;;;;;;5.10;2.63;;;;;;;;;;5047318;28;20203;-73
2023/03/12 04:34:21;;;;;;;2.80;2.50;;;;;;;;;;5046570;28;20210;-73
2023/03/12 04:36:50;;;;;;;2.97;2.50;;;;;;;;;;5045924;28;20196;-73
2023/03/12 04:39:18;;;;;;;5.40;2.70;;;;;;;;;;5043327;28;20286;-74
2023/03/12 04:41:47;;;;;;;8.53;2.70;;;;;;;;;;5043432;28;20195;-73
2023/03/12 04:44:14;;;;;;;5.50;2.47;;;;;;;;;;5045402;28;20231;-73
2023/03/12 04:46:41;;;;;;;4.23;2.33;;;;;;;;;;5046365;28;20203;-74
2023/03/12 04:49:08;;;;;;;5.37;2.63;;;;;;;;;;5048511;28;20223;-73
2023/03/12 04:51:35;;;;;;;7.17;2.80;;;;;;;;;;5046523;28;20316;-74
2023/03/12 04:54:03;;;;;;;4.63;2.40;;;;;;;;;;5043599;28;20206;-74
2023/03/12 04:56:33;;;;;;;5.57;2.70;;;;;;;;;;5044679;28;20218;-74
2023/03/12 04:59:05;;;;;;;7.27;2.90;;;;;;;;;;5046319;28;20210;-74
2023/03/12 05:01:34;;;;;;;5.27;2.90;;;;;;;;;;5047820;28;20290;-74
2023/03/12 05:04:01;;;;;;;5.53;3.03;;;;;;;;;;5046215;28;20221;-73
2023/03/12 05:06:28;;;;;;;8.40;3.17;;;;;;;;;;5046587;28;20208;-73
2023/03/12 05:08:55;;;;;;;7.97;3.37;;;;;;;;;;5045005;28;20204;-73
2023/03/12 05:11:23;;;;;;;4.43;3.07;;;;;;;;;;5047004;28;20249;-73
2023/03/12 05:13:52;;;;;;;6.67;3.27;;;;;;;;;;5043682;28;20195;-73
2023/03/12 05:16:21;;;;;;;5.13;3.00;;;;;;;;;;5041784;28;20299;-73
2023/03/12 05:18:48;;;;;;;7.37;3.43;;;;;;;;;;5046353;28;20294;-74
2023/03/12 05:21:16;;;;;;;5.77;3.33;;;;;;;;;;5044006;28;20191;-73
2023/03/12 05:23:46;;;;;;;4.47;3.43;;;;;;;;;;5046804;28;20294;-73
2023/03/12 05:26:17;;;;;;;7.37;4.33;;;;;;;;;;5043945;28;20192;-74
2023/03/12 05:28:44;;;;;;;8.77;4.23;;;;;;;;;;5044591;28;20254;-74
2023/03/12 05:31:11;;;;;;;5.27;3.83;;;;;;;;;;5043868;28;20219;-74
2023/03/12 05:33:40;;;;;;;5.27;3.37;;;;;;;;;;5045944;28;20565;-74
2023/03/12 05:36:08;;;;;;;6.57;4.23;;;;;;;;;;5047889;28;20203;-74
2023/03/12 05:38:35;;;;;;;7.87;3.50;;;;;;;;;;5049104;28;20272;-74
2023/03/12 05:41:03;;;;;;;6.20;3.60;;;;;;;;;;5048513;28;20198;-73
2023/03/12 05:43:30;;;;;;;4.90;3.77;;;;;;;;;;5046951;28;20290;-74
2023/03/12 05:45:59;;;;;;;5.23;3.33;;;;;;;;;;5043535;28;20200;-73
2023/03/12 05:48:26;;;;;;;7.67;4.80;;;;;;;;;;5046297;28;20204;-74
2023/03/12 05:50:55;;;;;;;7.23;4.73;;;;;;;;;;5045014;28;20257;-73
2023/03/12 05:53:22;;;;;;;7.27;4.97;;;;;;;;;;5044660;28;20290;-73
2023/03/12 05:55:49;;;;;;;10.30;7.60;;;;;;;;;;5044452;28;20255;-74
2023/03/12 05:58:16;;;;;;;8.80;7.00;;;;;;;;;;5045156;28;20245;-74
2023/03/12 06:00:44;;;;;;;9.67;8.60;;;;;;;;;;5044877;28;20238;-74
2023/03/12 06:03:12;;;;;;;11.83;8.67;;;;;;;;;;5047689;28;20203;-73
2023/03/12 06:05:39;;;;;;;10.03;8.10;;;;;;;;;;5043434;28;20218;-73
2023/03/12 06:08:08;;;;;;;9.30;7.77;;;;;;;;;;5046296;28;20199;-74
2023/03/12 06:10:35;;;;;;;12.70;8.70;;;;;;;;;;5045457;28;20204;-74
2023/03/12 06:13:02;;;;;;;11.80;9.27;;;;;;;;;;5046391;28;20196;-74
2023/03/12 06:15:29;;;;;;;12.83;9.17;;;;;;;;;;5042218;28;20206;-74
2023/03/12 06:17:56;;;;;;;11.43;9.80;;;;;;;;;;5045773;28;20207;-74
2023/03/12 06:20:24;;;;;;;14.13;10.83;;;;;;;;;;5045179;28;20200;-74
2023/03/12 06:22:51;;;;;;;14.20;11.10;;;;;;;;;;5046431;28;20196;-74
2023/03/12 06:25:19;;;;;;;10.97;8.73;;;;;;;;;;5043229;28;20217;-74
2023/03/12 06:27:53;;;;;;;12.40;9.60;;;;;;;;;;5045578;28;20195;-74
2023/03/12 06:30:20;;;;;;;12.17;8.80;;;;;;;;;;5046239;28;20205;-74
2023/03/12 06:32:47;;;;;;;12.47;9.37;;;;;;;;;;5048407;28;20207;-74
2023/03/12 06:35:14;;;;;;;13.23;9.03;;;;;;;;;;5045316;28;20195;-74
2023/03/12 06:37:41;;;;;;;11.33;8.80;;;;;;;;;;5047542;28;20203;-74
2023/03/12 06:40:09;;;;;;;13.30;9.13;;;;;;;;;;5050803;28;20214;-73
2023/03/12 06:42:38;;;;;;;10.03;8.40;;;;;;;;;;5044893;28;20271;-73
2023/03/12 06:45:06;;;;;;;13.63;11.47;;;;;;;;;;5048481;28;20222;-73
2023/03/12 06:47:33;;;;;;;12.10;10.40;;;;;;;;;;5048763;28;20206;-73
2023/03/12 06:50:03;;;;;;;17.20;11.97;;;;;;;;;;5048324;28;20207;-73
2023/03/12 06:52:33;;;;;;;15.07;11.80;;;;;;;;;;5046625;28;20227;-73
2023/03/12 06:55:00;;;;;;;15.97;10.73;;;;;;;;;;5045697;28;20199;-73
2023/03/12 06:57:27;;;;;;;11.93;9.50;;;;;;;;;;5046310;28;20208;-73
2023/03/12 06:59:56;;;;;;;13.53;10.70;;;;;;;;;;5046572;28;20233;-72
2023/03/12 07:02:23;;;;;;;12.00;9.37;;;;;;;;;;5051217;28;20291;-72
2023/03/12 07:04:50;;;;;;;12.30;9.60;;;;;;;;;;5047578;28;20216;-72
2023/03/12 07:07:18;;;;;;;12.73;10.53;;;;;;;;;;5043969;28;20302;-72
2023/03/12 07:09:46;;;;;;;13.90;11.73;;;;;;;;;;5047413;28;20231;-72
2023/03/12 07:12:13;;;;;;;16.73;12.30;;;;;;;;;;5047645;28;20214;-72
2023/03/12 07:14:40;;;;;;;16.03;11.70;;;;;;;;;;5046034;28;20522;-72
2023/03/12 07:17:08;;;;;;;18.43;12.13;;;;;;;;;;5049668;28;20286;-72
2023/03/12 07:19:35;;;;;;;14.17;12.43;;;;;;;;;;5050670;28;20214;-72
2023/03/12 07:22:03;;;;;;;17.53;13.53;;;;;;;;;;5047188;28;20199;-72
2023/03/12 07:24:30;;;;;;;19.90;13.70;;;;;;;;;;5049121;28;20211;-72
2023/03/12 07:26:57;;;;;;;22.57;14.23;;;;;;;;;;5045335;28;20206;-72
2023/03/12 07:29:24;;;;;;;20.33;14.17;;;;;;;;;;5047165;28;20222;-72
2023/03/12 07:31:51;;;;;;;18.20;12.40;;;;;;;;;;5047285;28;20223;-72
2023/03/12 07:34:20;;;;;;;19.93;13.83;;;;;;;;;;5044671;28;20203;-72
2023/03/12 07:36:47;;;;;;;19.20;13.60;;;;;;;;;;5041151;28;20268;-71
2023/03/12 07:39:14;;;;;;;17.40;13.50;;;;;;;;;;5045107;28;20206;-71
2023/03/12 07:41:41;;;;;;;19.80;13.80;;;;;;;;;;5038340;28;20207;-71
2023/03/12 07:44:08;;;;;;;21.63;13.97;;;;;;;;;;5041259;28;20214;-71
2023/03/12 07:46:36;;;;;;;16.57;13.20;;;;;;;;;;5048144;28;20200;-71
2023/03/12 07:49:03;;;;;;;20.03;14.10;;;;;;;;;;5047689;28;20214;-71
2023/03/12 07:51:31;;;;;;;34.37;14.37;;;;;;;;;;5048796;28;20227;-71
2023/03/12 07:53:58;;;;;;;15.37;12.63;;;;;;;;;;5047074;28;20202;-71
2023/03/12 07:56:26;;;;;;;16.40;12.77;;;;;;;;;;5046791;28;20214;-71
2023/03/12 07:58:53;;;;;;;18.53;13.33;;;;;;;;;;5045941;28;20196;-71
2023/03/12 08:01:20;;;;;;;18.53;14.87;;;;;;;;;;5046022;28;20203;-71
2023/03/12 08:03:47;;;;;;;22.27;15.20;;;;;;;;;;5046233;28;20196;-71
2023/03/12 08:06:14;;;;;;;17.70;13.93;;;;;;;;;;5046459;28;20227;-71
2023/03/12 08:08:43;;;;;;;20.43;13.20;;;;;;;;;;5051137;28;20219;-71
2023/03/12 08:11:10;;;;;;;24.40;13.53;;;;;;;;;;5046749;28;20219;-72
2023/03/12 08:13:37;;;;;;;24.73;13.63;;;;;;;;;;5045784;28;20208;-71
2023/03/12 08:16:04;;;;;;;20.07;13.23;;;;;;;;;;5041727;28;20221;-71
2023/03/12 08:18:32;;;;;;;16.63;12.93;;;;;;;;;;5047238;28;20218;-71
2023/03/12 08:20:59;;;;;;;22.27;13.13;;;;;;;;;;5048455;28;20208;-71
2023/03/12 08:23:26;;;;;;;18.37;13.37;;;;;;;;;;5049697;28;20200;-70
2023/03/12 08:25:55;;;;;;;19.70;14.43;;;;;;;;;;5047841;28;20265;-71
2023/03/12 08:28:23;;;;;;;28.87;14.23;;;;;;;;;;5046017;28;20215;-71
2023/03/12 08:30:51;;;;;;;20.33;13.83;;;;;;;;;;5048668;28;20196;-70
2023/03/12 08:33:18;;;;;;;24.20;13.43;;;;;;;;;;5047405;28;20290;-71
2023/03/12 08:35:45;;;;;;;19.77;13.73;;;;;;;;;;5047129;28;20204;-71
2023/03/12 08:38:13;;;;;;;36.47;14.23;;;;;;;;;;5047124;28;20211;-72
2023/03/12 08:40:40;;;;;;;17.90;13.53;;;;;;;;;;5045151;28;20195;-72
2023/03/12 08:43:09;;;;;;;23.70;13.87;;;;;;;;;;5047832;28;20291;-71
2023/03/12 08:45:36;;;;;;;28.13;13.83;;;;;;;;;;5042788;28;20263;-70
2023/03/12 08:48:03;;;;;;;23.67;14.00;;;;;;;;;;5046870;28;20212;-70
2023/03/12 08:50:31;;;;;;;31.03;13.93;;;;;;;;;;5043726;28;20214;-71
2023/03/12 08:52:58;;;;;;;19.50;13.47;;;;;;;;;;5043603;28;20311;-71
2023/03/12 08:55:26;;;;;;;21.47;12.50;;;;;;;;;;5047104;28;20286;-71
2023/03/12 08:57:54;;;;;;;17.27;11.60;;;;;;;;;;5047681;28;20199;-70
2023/03/12 09:00:23;;;;;;;15.40;11.60;;;;;;;;;;5044224;28;20321;-70
2023/03/12 09:02:52;;;;;;;11.27;10.07;;;;;;;;;;5045187;28;20219;-70
2023/03/12 09:05:20;;;;;;;16.47;11.67;;;;;;;;;;5045177;28;20200;-70
2023/03/12 09:07:48;;;;;;;18.17;11.20;;;;;;;;;;5046164;28;20211;-71
2023/03/12 09:10:15;;;;;;;14.87;11.90;;;;;;;;;;5047333;28;20231;-70
2023/03/12 09:12:43;;;;;;;16.27;11.67;;;;;;;;;;5045432;28;20222;-70
2023/03/12 09:15:10;;;;;;;15.73;12.57;;;;;;;;;;5046947;28;20206;-70
2023/03/12 09:17:39;;;;;;;14.20;12.50;;;;;;;;;;5045064;28;20203;-70
2023/03/12 09:20:08;;;;;;;14.00;12.43;;;;;;;;;;5035447;28;20224;-70
2023/03/12 09:22:35;;;;;;;16.13;12.37;;;;;;;;;;5047591;28;20234;-69
2023/03/12 09:25:03;;;;;;;16.60;11.70;;;;;;;;;;5045527;28;20215;-69
2023/03/12 09:27:30;;;;;;;13.17;11.50;;;;;;;;;;5042962;28;20212;-69
2023/03/12 09:29:57;;;;;;;12.50;11.20;;;;;;;;;;5044808;28;20207;-70
2023/03/12 09:32:26;;;;;;;15.17;11.60;;;;;;;;;;5041227;28;20216;-70
2023/03/12 09:34:54;;;;;;;14.63;11.87;;;;;;;;;;5041970;28;20241;-70
2023/03/12 09:37:21;;;;;;;21.23;10.67;;;;;;;;;;5040540;28;20211;-70
2023/03/12 09:39:50;;;;;;;13.40;10.57;;;;;;;;;;5045784;28;20303;-69
2023/03/12 09:42:22;;;;;;;11.60;10.47;;;;;;;;;;5041782;28;20269;-69
2023/03/12 09:44:49;;;;;;;13.17;10.70;;;;;;;;;;5046480;28;20204;-69
2023/03/12 09:47:19;;;;;;;13.13;10.70;;;;;;;;;;5044264;28;20222;-69
2023/03/12 09:49:47;;;;;;;12.07;9.57;;;;;;;;;;5044491;28;20214;-69
2023/03/12 09:52:21;;;;;;;14.10;9.83;;;;;;;;;;5044412;28;20223;-69
2023/03/12 09:54:53;;;;;;;13.10;10.17;;;;;;;;;;5044470;28;20221;-68
2023/03/12 09:57:22;;;;;;;15.03;10.23;;;;;;;;;;5039051;28;20214;-68
2023/03/12 09:59:51;;;;;;;12.67;9.37;;;;;;;;;;5039822;28;20200;-68
2023/03/12 10:02:30;;;;;;;11.77;9.70;;;;;;;;;;5040768;28;20286;-68
2023/03/12 10:04:59;;;;;;;13.23;9.60;;;;;;;;;;5040656;28;20195;-70
2023/03/12 10:07:31;;;;;;;11.43;9.73;;;;;;;;;;5044311;28;20271;-69
2023/03/12 10:10:10;;;;;;;13.03;9.57;;;;;;;;;;5045341;28;20195;-68
2023/03/12 10:12:44;;;;;;;10.83;8.50;;;;;;;;;;5042232;28;20215;-69
2023/03/12 10:15:16;;;;;;;14.07;9.00;;;;;;;;;;5043669;28;20207;-69
2023/03/12 10:17:48;;;;;;;13.33;8.77;;;;;;;;;;5045363;28;20254;-69
2023/03/12 10:20:34;;;;;;;14.03;8.53;;;;;;;;;;5046712;28;20221;-69
2023/03/12 10:23:06;;;;;;;13.13;8.27;;;;;;;;;;5037934;28;20199;-69
2023/03/12 10:25:37;;;;;;;11.57;7.73;;;;;;;;;;5045302;28;20215;-69
2023/03/12 10:28:12;;;;;;;10.93;8.83;;;;;;;;;;5035492;28;20203;-69
2023/03/12 10:30:41;;;;;;;11.77;7.37;;;;;;;;;;5041216;28;20203;-68
2023/03/12 10:33:12;;;;;;;12.63;7.70;;;;;;;;;;5036948;28;20364;-68
2023/03/12 10:35:40;;;;;;;14.40;7.90;;;;;;;;;;5040503;28;20212;-68
2023/03/12 10:38:13;;;;;;;15.23;7.20;;;;;;;;;;5041131;28;20211;-69
2023/03/12 10:40:41;;;;;;;12.13;6.73;;;;;;;;;;5037310;28;20208;-69
2023/03/12 10:43:08;;;;;;;9.87;6.83;;;;;;;;;;5041104;28;20196;-68
2023/03/12 10:45:39;;;;;;;16.07;7.43;;;;;;;;;;5043223;28;20207;-68
2023/03/12 10:48:07;;;;;;;12.50;6.60;;;;;;;;;;5040422;28;20203;-68
2023/03/12 10:50:38;;;;;;;13.43;7.50;;;;;;;;;;5046993;28;20207;-67
2023/03/12 10:53:30;;;;;;;12.77;6.70;;;;;;;;;;5043813;28;20220;-62
2023/03/12 10:56:03;;;;;;;17.00;6.67;;;;;;;;;;5027389;28;20207;-62
2023/03/12 10:58:35;;;;;;;10.47;5.93;;;;;;;;;;5044832;28;20214;-62
2023/03/12 11:01:03;;;;;;;13.00;6.37;;;;;;;;;;5043293;28;20208;-62
2023/03/12 11:03:30;;;;;;;11.60;6.33;;;;;;;;;;5044135;28;20273;-62
2023/03/12 11:06:00;;;;;;;10.80;5.00;;;;;;;;;;5037674;28;20206;-62
2023/03/12 11:08:28;;;;;;;10.53;4.80;;;;;;;;;;5046083;28;20202;-62
2023/03/12 11:10:56;;;;;;;12.07;5.07;;;;;;;;;;5036551;28;20209;-61
2023/03/12 11:13:26;;;;;;;11.83;4.77;;;;;;;;;;5044108;28;20223;-62
2023/03/12 11:15:54;;;;;;;13.27;4.20;;;;;;;;;;5043905;28;20203;-62
2023/03/12 11:18:24;;;;;;;13.63;4.73;;;;;;;;;;5045979;28;20195;-62
2023/03/12 11:20:52;;;;;;;9.67;3.67;;;;;;;;;;5045824;28;20286;-62
2023/03/12 11:23:21;;;;;;;16.53;4.73;;;;;;;;;;5044255;28;20199;-62
2023/03/12 11:25:52;;;;;;;12.57;3.90;;;;;;;;;;5047678;28;20203;-62
2023/03/12 11:28:22;;;;;;;14.40;3.83;;;;;;;;;;5042604;28;20294;-62
2023/03/12 11:30:52;;;;;;;16.20;4.30;;;;;;;;;;5047808;28;20203;-62
2023/03/12 11:33:19;;;;;;;13.67;4.20;;;;;;;;;;5044096;28;20299;-62
2023/03/12 11:35:50;;;;;;;16.37;4.13;;;;;;;;;;5043688;28;20209;-62
2023/03/12 11:38:19;;;;;;;16.67;3.90;;;;;;;;;;5046096;28;20210;-62
2023/03/12 11:40:56;;;;;;;14.13;3.87;;;;;;;;;;5043852;28;20208;-62
2023/03/12 11:43:29;;;;;;;14.30;4.10;;;;;;;;;;5044373;28;20218;-62
2023/03/12 11:46:06;;;;;;;13.47;3.60;;;;;;;;;;5046760;28;20204;-62
2023/03/12 11:48:37;;;;;;;11.00;3.80;;;;;;;;;;5041523;28;20212;-61
2023/03/12 11:51:10;;;;;;;14.77;3.63;;;;;;;;;;5045585;28;20207;-61
2023/03/12 11:53:45;;;;;;;15.27;3.33;;;;;;;;;;5042149;28;20228;-61
2023/03/12 11:56:16;;;;;;;14.87;3.60;;;;;;;;;;5039816;28;20207;-61
2023/03/12 11:58:51;;;;;;;10.57;3.27;;;;;;;;;;5044519;28;20294;-61
2023/03/12 12:01:24;;;;;;;12.47;3.70;;;;;;;;;;5044635;28;20203;-61
2023/03/12 12:04:12;;;;;;;12.77;3.43;;;;;;;;;;5047910;28;20195;-61
2023/03/12 12:06:44;;;;;;;12.10;3.30;;;;;;;;;;5043704;28;20198;-62
2023/03/12 12:09:17;;;;;;;10.20;3.13;;;;;;;;;;5045931;28;20214;-61
2023/03/12 12:11:50;;;;;;;11.33;3.67;;;;;;;;;;5047516;28;20203;-61
2023/03/12 12:14:23;;;;;;;16.33;4.03;;;;;;;;;;5049200;28;20206;-61
2023/03/12 12:16:59;;;;;;;13.40;3.60;;;;;;;;;;5044896;28;20195;-61
2023/03/12 12:19:31;;;;;;;14.40;3.57;;;;;;;;;;5045989;28;20203;-61
2023/03/12 12:22:04;;;;;;;12.00;3.20;;;;;;;;;;5045583;28;20206;-61
2023/03/12 12:24:38;;;;;;;12.50;3.80;;;;;;;;;;5043427;28;20229;-61
2023/03/12 12:27:12;;;;;;;13.07;3.63;;;;;;;;;;5041849;28;20221;-62
2023/03/12 12:29:48;;;;;;;15.30;4.30;;;;;;;;;;5047308;28;20207;-62
2023/03/12 12:32:20;;;;;;;10.77;4.23;;;;;;;;;;5044737;28;20203;-61
2023/03/12 12:34:58;;;;;;;10.27;3.77;;;;;;;;;;5042752;28;20203;-61
2023/03/12 12:37:30;;;;;;;14.43;4.20;;;;;;;;;;5039530;28;20196;-61
2023/03/12 12:40:03;;;;;;;15.03;4.17;;;;;;;;;;5044291;28;20290;-62
2023/03/12 12:42:33;;;;;;;13.00;3.33;;;;;;;;;;5042119;28;20221;-62
2023/03/12 12:45:00;;;;;;;10.17;3.40;;;;;;;;;;5043348;28;20204;-61
2023/03/12 12:47:38;;;;;;;13.70;3.67;;;;;;;;;;5039888;28;20211;-62
2023/03/12 12:50:05;;;;;;;9.23;3.23;;;;;;;;;;5043137;28;20203;-62
2023/03/12 12:52:33;;;;;;;11.53;3.17;;;;;;;;;;5042990;28;20241;-62
2023/03/12 12:55:06;;;;;;;11.07;3.43;;;;;;;;;;5049140;28;20209;-62
2023/03/12 12:57:38;;;;;;;13.30;3.13;;;;;;;;;;5039956;28;20207;-62
2023/03/12 13:00:26;;;;;;;14.57;3.77;;;;;;;;;;5049230;28;20294;-62
2023/03/12 13:02:56;;;;;;;13.47;3.87;;;;;;;;;;5039627;28;20200;-62
2023/03/12 13:05:27;;;;;;;14.03;3.33;;;;;;;;;;5040476;28;20199;-62
2023/03/12 13:07:54;;;;;;;11.80;3.57;;;;;;;;;;5038125;28;20282;-62
2023/03/12 13:10:41;;;;;;;12.63;3.37;;;;;;;;;;5020697;28;20234;-61
2023/03/12 13:13:13;;;;;;;11.83;3.20;;;;;;;;;;5042512;28;20231;-61
2023/03/12 13:15:42;;;;;;;12.83;3.10;;;;;;;;;;5044787;28;20211;-62
2023/03/12 13:18:19;;;;;;;11.57;3.47;;;;;;;;;;5044500;28;20203;-61
2023/03/12 13:21:00;;;;;;;9.53;3.03;;;;;;;;;;5043746;28;20203;-61
2023/03/12 13:23:33;;;;;;;11.77;3.13;;;;;;;;;;5045170;28;20200;-61
2023/03/12 13:26:04;;;;;;;10.53;3.30;;;;;;;;;;5042494;28;20192;-61
2023/03/12 13:28:34;;;;;;;10.47;2.80;;;;;;;;;;5042905;28;20214;-61
2023/03/12 13:31:02;;;;;;;10.10;2.63;;;;;;;;;;5044036;28;20208;-61
2023/03/12 13:33:43;;;;;;;14.30;3.47;;;;;;;;;;5042756;28;20219;-61
2023/03/12 13:36:23;;;;;;;11.10;3.37;;;;;;;;;;5040646;28;20258;-61
2023/03/12 13:38:55;;;;;;;13.90;3.53;;;;;;;;;;5040137;28;20210;-61
2023/03/12 13:41:30;;;;;;;17.17;4.07;;;;;;;;;;5037309;28;20204;-61
2023/03/12 13:43:58;;;;;;;14.50;3.50;;;;;;;;;;5045952;28;20498;-62
2023/03/12 13:46:30;;;;;;;13.17;3.90;;;;;;;;;;5040144;28;20203;-61
2023/03/12 13:49:01;;;;;;;14.63;3.80;;;;;;;;;;5041675;28;20230;-61
2023/03/12 13:51:28;;;;;;;16.60;3.80;;;;;;;;;;5040861;28;20205;-61
2023/03/12 13:53:58;;;;;;;12.97;3.77;;;;;;;;;;5046578;28;20223;-61
2023/03/12 13:56:27;;;;;;;10.13;3.17;;;;;;;;;;5044319;28;20213;-62
2023/03/12 13:58:55;;;;;;;12.93;3.60;;;;;;;;;;5041291;28;20263;-61
2023/03/12 14:01:24;;;;;;;13.13;3.60;;;;;;;;;;5042589;28;20217;-61
2023/03/12 14:03:55;;;;;;;11.70;3.50;;;;;;;;;;5040557;28;20294;-61
2023/03/12 14:06:26;;;;;;;10.57;3.10;;;;;;;;;;5040986;28;20266;-61
2023/03/12 14:09:00;;;;;;;11.80;3.10;;;;;;;;;;5041845;28;20291;-61
2023/03/12 14:11:33;;;;;;;15.20;3.60;;;;;;;;;;5042733;28;20209;-61
2023/03/12 14:14:09;;;;;;;10.77;3.33;;;;;;;;;;5042370;28;20258;-61
2023/03/12 14:16:39;;;;;;;11.70;3.30;;;;;;;;;;5041870;28;20203;-62
2023/03/12 14:19:07;;;;;;;15.33;4.27;;;;;;;;;;5042158;28;20200;-61
2023/03/12 14:21:38;;;;;;;12.73;3.53;;;;;;;;;;5042283;28;20203;-61
2023/03/12 14:24:07;;;;;;;18.80;4.50;;;;;;;;;;5044580;28;20213;-61
2023/03/12 14:26:35;;;;;;;15.83;4.17;;;;;;;;;;5043817;28;20262;-61
2023/03/12 14:29:06;;;;;;;13.83;4.00;;;;;;;;;;5038995;28;20210;-61
2023/03/12 14:31:34;;;;;;;14.20;3.87;;;;;;;;;;5035348;28;20217;-61
2023/03/12 14:34:03;;;;;;;18.47;4.70;;;;;;;;;;5033227;28;20225;-61
2023/03/12 14:36:36;;;;;;;14.30;4.13;;;;;;;;;;5039089;28;20214;-61
2023/03/12 14:39:12;;;;;;;11.93;4.37;;;;;;;;;;5043764;28;20204;-62
2023/03/12 14:41:43;;;;;;;11.23;3.80;;;;;;;;;;5042065;28;20205;-61